PWSweather.com
Personal Weather Stations
Station Observations
PENICUIKWS
PenicuikGB

PenicuikGB

Lat: 55.830932, Lon: -3.224533000000065

Elevation: 166

Station Type: Fine Offset

http://weather.penicuik.org

High Low Average
Temperature 36.1°F2.3°C 21.6°F-5.8°C 27.6°F-2.4°C
Dew Point 28.9°F-1.7°C 17.0°F-8.3°C 22.1°F-5.5°C
Winds 3.0 mph 4.8 kmh Calm Calm 1.0 mph ENE1.6 kmh ENE
Wind Gusts 8.3 mph13.4 kmh -- 2.0 mph3.2 kmh
Humidity 85% 69% 80%
Pressure 29.89 in1012.2 mb 29.68 in1005.1 mb -
Precipitation 0.01 in0.3 mm - -
Hour Temp Dew Point Humidity Winds Wind Gusts Pressure Precip Precip Rate Daily Precip Total
12:00 AM 22.1°F-5.5°C 17.2°F-8.2°C 81% 2.7 mph NE4.3 kmh NE 4.5 mph7.2 kmh 29.86 in1011.2 mb 0.00 in0.0 mm 0.00 in0.0 mm 0.00 in0.0 mm
12:15 AM 22.6°F-5.2°C 17.7°F-7.9°C 81% 1.7 mph NE2.7 kmh NE 3.1 mph5.0 kmh 29.86 in1011.2 mb 0.00 in0.0 mm 0.00 in0.0 mm 0.00 in0.0 mm
12:30 AM 22.6°F-5.2°C 18.0°F-7.8°C 82% 0.9 mph NE1.4 kmh NE 2.2 mph3.5 kmh 29.86 in1011.2 mb 0.00 in0.0 mm 0.00 in0.0 mm 0.00 in0.0 mm
12:45 AM 22.3°F-5.4°C 17.7°F-7.9°C 82% 0.4 mph NE0.6 kmh NE 1.6 mph2.6 kmh 29.86 in1011.2 mb 0.00 in0.0 mm 0.00 in0.0 mm 0.00 in0.0 mm
01:00 AM 22.1°F-5.5°C 17.5°F-8.1°C 82% 0.5 mph NE0.8 kmh NE 1.6 mph2.6 kmh 29.87 in1011.5 mb 0.00 in0.0 mm 0.00 in0.0 mm 0.00 in0.0 mm
01:15 AM 21.7°F-5.7°C 17.1°F-8.3°C 82% 1.0 mph NE1.6 kmh NE 1.6 mph2.6 kmh 29.88 in1011.9 mb 0.00 in0.0 mm 0.00 in0.0 mm 0.00 in0.0 mm
01:30 AM 21.7°F-5.7°C 17.1°F-8.3°C 82% 1.0 mph NE1.6 kmh NE 2.2 mph3.5 kmh 29.88 in1011.9 mb 0.00 in0.0 mm 0.00 in0.0 mm 0.00 in0.0 mm
02:00 AM 21.6°F-5.8°C 17.0°F-8.3°C 82% 1.8 mph NE2.9 kmh NE 2.2 mph3.5 kmh 29.88 in1011.9 mb 0.00 in0.0 mm 0.00 in0.0 mm 0.00 in0.0 mm
02:15 AM 21.6°F-5.8°C 17.0°F-8.3°C 82% 0.5 mph NE0.8 kmh NE 1.6 mph2.6 kmh 29.89 in1012.2 mb 0.00 in0.0 mm 0.00 in0.0 mm 0.00 in0.0 mm
02:30 AM 21.7°F-5.7°C 17.1°F-8.3°C 82% 0.5 mph NE0.8 kmh NE 1.6 mph2.6 kmh 29.89 in1012.2 mb 0.00 in0.0 mm 0.00 in0.0 mm 0.00 in0.0 mm
02:45 AM 22.1°F-5.5°C 17.5°F-8.1°C 82% 2.2 mph NE3.5 kmh NE 3.8 mph6.1 kmh 29.88 in1011.9 mb 0.00 in0.0 mm 0.00 in0.0 mm 0.00 in0.0 mm
03:00 AM 22.1°F-5.5°C 17.5°F-8.1°C 82% 0.4 mph NE0.6 kmh NE 2.2 mph3.5 kmh 29.89 in1012.2 mb 0.00 in0.0 mm 0.00 in0.0 mm 0.00 in0.0 mm
03:15 AM 22.6°F-5.2°C 18.0°F-7.8°C 82% 1.2 mph NE1.9 kmh NE 2.2 mph3.5 kmh 29.88 in1011.9 mb 0.00 in0.0 mm 0.00 in0.0 mm 0.00 in0.0 mm
03:30 AM 23.0°F-5.0°C 18.1°F-7.7°C 81% 0.7 mph NE1.1 kmh NE 1.6 mph2.6 kmh 29.88 in1011.9 mb 0.00 in0.0 mm 0.00 in0.0 mm 0.00 in0.0 mm
04:00 AM 23.5°F-4.7°C 18.9°F-7.3°C 82% 0.4 mph NE0.6 kmh NE 1.6 mph2.6 kmh 29.88 in1011.9 mb 0.00 in0.0 mm 0.00 in0.0 mm 0.00 in0.0 mm
04:15 AM 23.7°F-4.6°C 19.1°F-7.2°C 82% 0.4 mph NE0.6 kmh NE 1.6 mph2.6 kmh 29.88 in1011.9 mb 0.00 in0.0 mm 0.00 in0.0 mm 0.00 in0.0 mm
04:30 AM 24.1°F-4.4°C 19.4°F-7.0°C 82% 0.9 mph NE1.4 kmh NE 1.6 mph2.6 kmh 29.88 in1011.9 mb 0.00 in0.0 mm 0.00 in0.0 mm 0.00 in0.0 mm
04:45 AM 24.4°F-4.2°C 19.8°F-6.8°C 82% 0.4 mph NE0.6 kmh NE 1.6 mph2.6 kmh 29.88 in1011.9 mb 0.00 in0.0 mm 0.00 in0.0 mm 0.00 in0.0 mm
05:00 AM 24.8°F-4.0°C 19.8°F-6.8°C 81% 0.8 mph NE1.3 kmh NE 1.6 mph2.6 kmh 29.88 in1011.9 mb 0.00 in0.0 mm 0.00 in0.0 mm 0.00 in0.0 mm
05:15 AM 25.0°F-3.9°C 20.0°F-6.7°C 81% 0.7 mph NE1.1 kmh NE 1.6 mph2.6 kmh 29.88 in1011.9 mb 0.00 in0.0 mm 0.00 in0.0 mm 0.00 in0.0 mm
05:30 AM 25.2°F-3.8°C 20.2°F-6.6°C 81% 0.7 mph NE1.1 kmh NE 1.6 mph2.6 kmh 29.88 in1011.9 mb 0.00 in0.0 mm 0.00 in0.0 mm 0.00 in0.0 mm
05:45 AM 25.3°F-3.7°C 20.4°F-6.4°C 81% 0.5 mph NE0.8 kmh NE 1.6 mph2.6 kmh 29.87 in1011.5 mb 0.00 in0.0 mm 0.00 in0.0 mm 0.00 in0.0 mm
06:00 AM 25.5°F-3.6°C 20.5°F-6.4°C 81% 0.4 mph NE0.6 kmh NE 1.6 mph2.6 kmh 29.87 in1011.5 mb 0.00 in0.0 mm 0.00 in0.0 mm 0.00 in0.0 mm
06:15 AM 25.7°F-3.5°C 20.7°F-6.3°C 81% 1.0 mph NE1.6 kmh NE 2.2 mph3.5 kmh 29.86 in1011.2 mb 0.00 in0.0 mm 0.00 in0.0 mm 0.00 in0.0 mm
06:30 AM 25.7°F-3.5°C 20.7°F-6.3°C 81% 0.8 mph NE1.3 kmh NE 2.2 mph3.5 kmh 29.85 in1010.8 mb 0.00 in0.0 mm 0.00 in0.0 mm 0.00 in0.0 mm
06:45 AM 25.9°F-3.4°C 20.9°F-6.2°C 81% 0.7 mph NE1.1 kmh NE 1.6 mph2.6 kmh 29.85 in1010.8 mb 0.00 in0.0 mm 0.00 in0.0 mm 0.00 in0.0 mm
07:15 AM 26.2°F-3.2°C 21.2°F-6.0°C 81% 0.2 mph NE0.3 kmh NE 1.6 mph2.6 kmh 29.84 in1010.5 mb 0.00 in0.0 mm 0.00 in0.0 mm 0.00 in0.0 mm
07:30 AM 26.6°F-3.0°C 21.3°F-5.9°C 80% 0.9 mph NE1.4 kmh NE 2.2 mph3.5 kmh 29.83 in1010.2 mb 0.00 in0.0 mm 0.00 in0.0 mm 0.00 in0.0 mm
07:45 AM 26.6°F-3.0°C 21.3°F-5.9°C 80% 0.7 mph NE1.1 kmh NE 1.6 mph2.6 kmh 29.83 in1010.2 mb 0.00 in0.0 mm 0.00 in0.0 mm 0.00 in0.0 mm
08:15 AM 26.8°F-2.9°C 21.5°F-5.8°C 80% Calm Calm 0.7 mph1.1 kmh 29.83 in1010.2 mb 0.00 in0.0 mm 0.00 in0.0 mm 0.00 in0.0 mm
08:30 AM 27.7°F-2.4°C 22.6°F-5.2°C 81% 1.3 mph NE2.1 kmh NE 3.1 mph5.0 kmh 29.83 in1010.2 mb 0.00 in0.0 mm 0.00 in0.0 mm 0.00 in0.0 mm
08:45 AM 28.0°F-2.2°C 23.0°F-5.0°C 81% 0.1 mph NE0.2 kmh NE 0.7 mph1.1 kmh 29.83 in1010.2 mb 0.00 in0.0 mm 0.00 in0.0 mm 0.00 in0.0 mm
09:00 AM 28.4°F-2.0°C 24.5°F-4.2°C 85% Calm Calm -- 29.82 in1009.8 mb 0.00 in0.0 mm 0.00 in0.0 mm 0.00 in0.0 mm
09:15 AM 28.9°F-1.7°C 25.0°F-3.9°C 85% 0.2 mph NE0.3 kmh NE 1.6 mph2.6 kmh 29.82 in1009.8 mb 0.00 in0.0 mm 0.00 in0.0 mm 0.00 in0.0 mm
09:30 AM 29.7°F-1.3°C 25.7°F-3.5°C 85% 0.3 mph NE0.5 kmh NE 1.6 mph2.6 kmh 29.82 in1009.8 mb 0.00 in0.0 mm 0.00 in0.0 mm 0.00 in0.0 mm
09:45 AM 29.7°F-1.3°C 25.7°F-3.5°C 85% 0.9 mph NE1.4 kmh NE 2.2 mph3.5 kmh 29.83 in1010.2 mb 0.00 in0.0 mm 0.00 in0.0 mm 0.00 in0.0 mm
10:00 AM 30.4°F-0.9°C 26.1°F-3.3°C 84% 0.6 mph NE1.0 kmh NE 2.2 mph3.5 kmh 29.81 in1009.5 mb 0.00 in0.0 mm 0.00 in0.0 mm 0.00 in0.0 mm
10:15 AM 31.6°F-0.2°C 27.4°F-2.6°C 84% 0.9 mph NE1.4 kmh NE 2.2 mph3.5 kmh 29.80 in1009.1 mb 0.00 in0.0 mm 0.00 in0.0 mm 0.00 in0.0 mm
10:30 AM 32.7°F0.4°C 27.9°F-2.3°C 82% 0.4 mph NE0.6 kmh NE 2.2 mph3.5 kmh 29.80 in1009.1 mb 0.00 in0.0 mm 0.00 in0.0 mm 0.00 in0.0 mm
10:45 AM 34.2°F1.2°C 28.7°F-1.8°C 80% 0.5 mph NE0.8 kmh NE 2.2 mph3.5 kmh 29.78 in1008.5 mb 0.00 in0.0 mm 0.00 in0.0 mm 0.00 in0.0 mm
11:00 AM 35.4°F1.9°C 28.9°F-1.7°C 77% 0.3 mph NE0.5 kmh NE 1.6 mph2.6 kmh 29.76 in1007.8 mb 0.00 in0.0 mm 0.00 in0.0 mm 0.00 in0.0 mm
11:15 AM 35.8°F2.1°C 27.3°F-2.6°C 71% 0.4 mph NE0.6 kmh NE 1.6 mph2.6 kmh 29.75 in1007.5 mb 0.00 in0.0 mm 0.00 in0.0 mm 0.00 in0.0 mm
11:30 AM 36.0°F2.2°C 27.1°F-2.7°C 70% 0.4 mph NE0.6 kmh NE 3.1 mph5.0 kmh 29.75 in1007.5 mb 0.00 in0.0 mm 0.00 in0.0 mm 0.00 in0.0 mm
11:45 AM 35.6°F2.0°C 26.5°F-3.1°C 69% 0.8 mph NW1.3 kmh NW 2.2 mph3.5 kmh 29.74 in1007.1 mb 0.00 in0.0 mm 0.00 in0.0 mm 0.00 in0.0 mm
12:00 PM 35.6°F2.0°C 26.5°F-3.1°C 69% 1.0 mph SE1.6 kmh SE 2.2 mph3.5 kmh 29.73 in1006.8 mb 0.00 in0.0 mm 0.00 in0.0 mm 0.00 in0.0 mm
12:15 PM 35.8°F2.1°C 26.6°F-3.0°C 69% 3.0 mph SSE4.8 kmh SSE 8.3 mph13.4 kmh 29.72 in1006.4 mb 0.00 in0.0 mm 0.00 in0.0 mm 0.00 in0.0 mm
12:30 PM 36.1°F2.3°C 27.3°F-2.6°C 70% 2.0 mph W3.2 kmh W 3.1 mph5.0 kmh 29.73 in1006.8 mb 0.00 in0.0 mm 0.00 in0.0 mm 0.00 in0.0 mm
12:45 PM 35.2°F1.8°C 26.8°F-2.9°C 71% 2.2 mph SW3.5 kmh SW 5.4 mph8.7 kmh 29.71 in1006.1 mb 0.01 in0.3 mm 0.04 in1.0 mm 0.01 in0.3 mm
01:00 PM 34.9°F1.6°C 26.8°F-2.9°C 72% 1.9 mph NNW3.1 kmh NNW 4.5 mph7.2 kmh 29.71 in1006.1 mb 0.01 in0.3 mm 0.00 in0.0 mm 0.01 in0.3 mm
01:15 PM 34.5°F1.4°C 27.4°F-2.6°C 75% 1.2 mph SE1.9 kmh SE 2.2 mph3.5 kmh 29.70 in1005.8 mb 0.01 in0.3 mm 0.00 in0.0 mm 0.01 in0.3 mm
01:30 PM 34.3°F1.3°C 28.5°F-1.9°C 79% 2.3 mph S3.7 kmh S 4.5 mph7.2 kmh 29.68 in1005.1 mb 0.01 in0.3 mm 0.00 in0.0 mm 0.01 in0.3 mm